Stations météo

réclame
Mon MeteoGroup
Sierra De Alfabia, Espagne (8303): Température de l'air & dewpoint: 17.10.2017 04:00:00 - 23.10.2017 04:00:00 (CEST)Sierra De Alfabia, Espagne (8303): Vitesse du vent & gusts: 17.10.2017 04:00:00 - 23.10.2017 04:00:00 (CEST)Sierra De Alfabia, Espagne (8303): Direction du vent: 17.10.2017 04:00:00 - 23.10.2017 04:00:00 (CEST)Sierra De Alfabia, Espagne (8303): Quantités de précipitations: 17.10.2017 04:00:00 - 23.10.2017 04:00:00 (CEST)
Date & Time tt [°C] td [°C] ff [km/h] ff [knt] fx [km/h] fx [knt] dd rr [mm]
23.10.2017 04:00:00 8,9 4,6 28 15 50 27 NW 0,0
23.10.2017 03:00:00 8,8 7,0 37 20 58 32 NNW 0,0
23.10.2017 02:00:00 8,9 7,0 34 19 51 27 NNW -
23.10.2017 01:00:00 8,6 6,7 29 15 45 24 NNW 0,0
23.10.2017 00:00:00 8,2 6,4 35 19 49 27 NNW 0,0
22.10.2017 23:00:00 8,7 6,8 24 13 31 17 NNW 0,0
22.10.2017 22:00:00 9,2 7,3 20 11 48 26 NNW 0,0
22.10.2017 21:00:00 10,3 8,4 21 11 29 16 NW 0,0
22.10.2017 20:00:00 10,1 8,3 10 5 15 8 WNW -
22.10.2017 19:00:00 10,6 8,7 9 5 14 7 W 0,0
22.10.2017 18:00:00 10,6 8,7 1 1 13 7 SSW 0,1
22.10.2017 17:00:00 11,1 9,2 3 2 11 6 NE 0,0
22.10.2017 16:00:00 11,0 9,0 2 1 20 11 E 0,0
22.10.2017 15:00:00 10,6 8,7 10 6 22 12 E 0,0
22.10.2017 14:00:00 10,6 8,7 9 5 21 12 E -
22.10.2017 13:00:00 10,5 8,7 7 4 26 14 ESE 0,0
22.10.2017 12:00:00 10,4 8,5 14 8 34 18 ESE 0,0
22.10.2017 11:00:00 10,0 8,1 27 14 51 28 ESE 0,6
22.10.2017 10:00:00 10,1 8,3 33 18 50 27 ESE 0,6
22.10.2017 09:00:00 10,6 8,7 36 19 50 27 ESE 0,0
22.10.2017 08:00:00 11,3 9,4 28 15 40 22 ESE -
22.10.2017 07:00:00 11,4 9,4 28 15 37 20 ESE 0,9
22.10.2017 06:00:00 12,1 10,2 23 13 32 17 ESE 0,0
22.10.2017 05:00:00 11,8 8,8 19 10 27 14 SE 0,0
22.10.2017 04:00:00 12,5 6,5 1 1 18 10 N 0,0
22.10.2017 03:00:00 13,0 6,5 14 8 23 13 N 0,0
22.10.2017 02:00:00 13,3 5,9 17 9 21 11 NNW -
22.10.2017 01:00:00 14,2 5,3 9 5 16 9 N 0,0
22.10.2017 00:00:00 13,3 5,5 14 7 18 10 NNW 0,0
21.10.2017 23:00:00 13,7 5,3 19 10 28 15 NNW 0,0
21.10.2017 22:00:00 14,3 6,4 15 8 21 11 NNW 0,0
21.10.2017 21:00:00 14,3 5,6 15 8 24 13 NW 0,0
21.10.2017 20:00:00 14,3 5,1 13 7 18 10 NW -
21.10.2017 19:00:00 14,6 11,0 8 4 11 6 WNW 0,0
21.10.2017 18:00:00 15,0 11,3 4 2 11 6 SSW 0,0
21.10.2017 17:00:00 15,8 11,2 4 2 17 9 W 0,0
21.10.2017 16:00:00 16,3 11,2 10 5 19 11 S 0,0
21.10.2017 15:00:00 16,2 11,3 5 3 12 7 WSW 0,0
21.10.2017 14:00:00 17,4 10,8 6 4 17 9 SW -
21.10.2017 13:00:00 17,9 8,4 5 3 14 8 SSW 0,0
21.10.2017 12:00:00 17,3 8,9 7 4 13 7 S 0,0
21.10.2017 11:00:00 16,8 7,7 6 3 11 6 SSW 0,0
21.10.2017 10:00:00 15,7 8,3 10 5 13 7 S 0,0
21.10.2017 09:00:00 14,5 8,4 6 3 9 5 S 0,0
21.10.2017 08:00:00 13,1 8,1 6 3 7 4 S -
21.10.2017 07:00:00 12,7 8,9 1 0 9 5 S 0,0
21.10.2017 06:00:00 12,5 8,9 6 3 10 5 SSE 0,0
21.10.2017 05:00:00 12,2 9,8 8 4 10 5 NNE 0,0
21.10.2017 04:00:00 12,8 8,9 6 3 9 5 N 0,0
21.10.2017 03:00:00 12,4 9,8 9 5 10 5 NE 0,0
21.10.2017 02:00:00 13,1 8,9 4 2 10 6 NNE -
21.10.2017 01:00:00 13,0 8,5 2 1 7 4 NNW 0,0
21.10.2017 00:00:00 13,0 9,0 2 1 8 4 N 0,0
20.10.2017 23:00:00 12,8 8,9 3 2 9 5 NNE 0,0
20.10.2017 22:00:00 12,2 8,3 6 3 12 7 NNE 0,0
20.10.2017 21:00:00 12,1 7,4 10 6 14 7 NE 0,0
20.10.2017 20:00:00 12,0 5,1 9 5 14 7 NNE -
20.10.2017 19:00:00 11,1 9,0 9 5 11 6 N 0,0
20.10.2017 18:00:00 11,9 9,0 8 5 14 8 NNW 0,0
20.10.2017 17:00:00 12,3 9,2 10 5 17 9 N 0,0
20.10.2017 16:00:00 12,2 9,6 8 4 13 7 NNE 0,0
20.10.2017 15:00:00 13,6 9,7 5 3 15 8 N 0,0
20.10.2017 14:00:00 12,7 10,0 6 3 24 13 N -
20.10.2017 13:00:00 12,6 8,7 14 8 24 13 NNW 0,0
20.10.2017 12:00:00 14,5 7,1 2 1 9 5 ENE 0,0
20.10.2017 11:00:00 12,6 6,4 5 3 9 5 N 0,0
20.10.2017 10:00:00 12,1 6,5 4 2 8 4 NE 0,0
20.10.2017 09:00:00 10,5 7,1 4 2 12 6 NNE 0,0
20.10.2017 08:00:00 9,4 7,3 11 6 15 8 NNW -
20.10.2017 07:00:00 9,3 7,1 10 6 13 7 NNW 0,0
20.10.2017 06:00:00 9,1 6,4 9 5 17 9 NW 0,0
20.10.2017 05:00:00 9,4 7,6 8 4 17 9 WNW 0,0
20.10.2017 04:00:00 9,4 7,6 8 4 26 14 NNW 0,0
20.10.2017 03:00:00 9,3 7,4 19 10 30 16 NNW 0,0
20.10.2017 02:00:00 8,9 6,8 23 12 30 16 NW -
20.10.2017 01:00:00 8,8 6,1 15 8 29 15 NW 0,0
20.10.2017 00:00:00 9,0 6,4 20 11 32 18 NNW 0,0
19.10.2017 23:00:00 8,8 6,5 22 12 33 18 NNW 0,0
19.10.2017 22:00:00 8,6 5,5 24 13 39 21 NW 0,0
19.10.2017 21:00:00 8,3 5,9 20 11 36 19 NW 0,0
19.10.2017 20:00:00 8,4 6,2 24 13 34 18 NW -
19.10.2017 19:00:00 8,8 5,8 19 11 36 19 NW 0,0
19.10.2017 18:00:00 9,6 6,2 21 11 40 22 WNW 0,0
19.10.2017 17:00:00 8,7 6,8 18 10 41 22 NW 0,0
19.10.2017 16:00:00 9,0 7,1 20 11 48 26 NW 0,0
19.10.2017 15:00:00 9,1 7,3 29 15 47 25 NW 0,1
19.10.2017 14:00:00 8,9 7,0 17 9 37 20 WNW -
19.10.2017 13:00:00 10,0 8,0 16 9 31 17 NE 4,8
19.10.2017 12:00:00 11,0 7,3 15 8 32 18 SSE 0,0
19.10.2017 11:00:00 10,2 7,3 24 13 42 23 SSE 0,5
19.10.2017 10:00:00 10,3 7,7 18 10 30 16 SSE 1,1
19.10.2017 09:00:00 10,8 7,1 21 11 31 17 SSE 0,0
19.10.2017 08:00:00 10,5 6,1 24 13 30 16 SSE -
19.10.2017 07:00:00 10,4 8,5 9 5 22 12 S 0,5
19.10.2017 06:00:00 9,6 7,7 21 11 32 18 NNW 0,3
19.10.2017 05:00:00 9,4 7,6 16 9 39 21 NW 4,6
19.10.2017 04:00:00 11,4 9,4 10 6 47 25 SSW 2,6
19.10.2017 03:00:00 11,4 9,4 20 11 55 30 S 1,3
19.10.2017 02:00:00 11,1 9,2 30 16 61 33 S -
19.10.2017 01:00:00 13,2 11,2 23 12 62 33 SSW 1,3
19.10.2017 00:00:00 14,6 12,6 27 14 - - S -
18.10.2017 23:00:00 15,1 13,2 21 12 46 25 S 0,0
18.10.2017 22:00:00 14,4 12,4 24 13 36 19 S 0,0
18.10.2017 21:00:00 14,0 12,0 23 13 35 19 S 0,0
18.10.2017 20:00:00 14,7 12,5 26 14 40 22 S -
18.10.2017 19:00:00 15,0 12,8 23 12 37 20 S 0,0
18.10.2017 18:00:00 15,1 12,7 25 13 42 23 S 0,0
18.10.2017 17:00:00 16,2 10,8 23 13 39 21 S 0,0
18.10.2017 16:00:00 18,0 12,2 17 9 34 19 S 0,0
18.10.2017 15:00:00 16,8 11,9 21 11 37 20 S 0,0
18.10.2017 14:00:00 18,1 9,9 19 11 39 21 S -
18.10.2017 13:00:00 16,8 9,0 26 14 41 22 S 0,0
18.10.2017 12:00:00 17,6 3,8 26 14 39 21 S 0,0
18.10.2017 11:00:00 16,8 -2,0 28 15 38 21 S 0,0
18.10.2017 10:00:00 15,4 -3,0 27 14 38 20 S 0,0
18.10.2017 09:00:00 15,8 -3,3 25 13 39 21 S 0,0
18.10.2017 08:00:00 14,5 -1,7 26 14 32 17 S -
18.10.2017 07:00:00 13,7 1,3 22 12 29 16 S 0,0
18.10.2017 06:00:00 14,3 1,9 23 12 27 14 SSE 0,0
18.10.2017 05:00:00 14,1 1,3 17 9 22 12 S 0,0
18.10.2017 04:00:00 13,9 1,5 7 4 13 7 WSW 0,0
18.10.2017 03:00:00 13,5 2,5 6 3 13 7 WSW 0,0
18.10.2017 02:00:00 13,9 1,5 10 5 14 8 W -
18.10.2017 01:00:00 14,0 2,3 5 3 14 8 SSW 0,0
18.10.2017 00:00:00 13,3 5,6 8 4 13 7 S 0,0
17.10.2017 23:00:00 12,3 10,4 10 5 22 12 SSE 0,0
17.10.2017 22:00:00 13,0 11,1 16 8 22 12 S 0,0
17.10.2017 21:00:00 13,7 11,8 18 10 28 15 SSE 0,0
17.10.2017 20:00:00 14,2 12,2 19 10 27 14 SSE -
17.10.2017 19:00:00 14,6 12,4 9 5 16 9 S 0,0
17.10.2017 18:00:00 14,9 12,5 7 4 19 10 S 0,0
17.10.2017 17:00:00 15,6 12,5 10 5 21 12 S 0,0
17.10.2017 16:00:00 16,3 9,9 12 7 23 12 SSE 0,0
17.10.2017 15:00:00 16,6 9,3 14 8 22 12 SSE 0,0
17.10.2017 14:00:00 16,8 8,3 13 7 23 12 S -
17.10.2017 13:00:00 16,6 9,8 11 6 29 16 SSE 0,0
17.10.2017 12:00:00 15,7 10,9 19 11 29 15 SSE 0,0
17.10.2017 11:00:00 15,2 10,6 16 9 24 13 SSE 0,0
17.10.2017 10:00:00 14,2 10,6 16 9 23 12 SE 0,1
17.10.2017 09:00:00 12,7 10,4 17 9 22 12 ESE 0,0
17.10.2017 08:00:00 11,8 9,7 16 8 19 11 SE -
17.10.2017 07:00:00 11,8 9,6 13 7 20 11 ESE 0,1
17.10.2017 06:00:00 11,4 8,9 14 8 16 9 SSE 0,0
17.10.2017 05:00:00 11,7 9,0 10 6 19 10 SSE 0,0
17.10.2017 04:00:00 11,3 9,4 16 8 19 10 ESE 0,0

tt = Température de l'air
td = dewpoint
ff = Vitesse du vent
fx = gusts
dd = Direction du vent
rr = Quantités de précipitations

stations d'obs. à proximité